Edison, Colorado
Current Conditions -  °F | °C
As of 4:56 PM on Saturday 20 Dec 2014 (Local Time) from KSHM Reporting Station
Broken Clouds Broken Clouds  
Wind Chill: 35°   Ceiling: 9000
Heat Index: 40°   Visibility: 10mi
Dew Point: 15°   Wind: 7mph
Humidity: 36%   Direction: 40°NE
Pressure: 29.95"   Gusts: NA
Location:  38.697°N, 104.225°W
Report Text: KSHM 202356Z AUTO 04006KT 10SM BKN090 05/M09 A2995 RMK AO2 SLP165 T00451094 10094 20045 53003
Loading
Personal Weather Stations






























Interactive Weather Map New forecast layout! Learn more

10-Day Weather Forecast

Advertisements
Track Severe Weather on mobile